Time;durP1;ratioP1;P1;durP2;ratioP2;P2;SDS_P1;SDS_P2;PMS_P1;PMS_P2;Temp;Humidity;BMP_temperature;BMP_pressure;BME280_temperature;BME280_humidity;BME280_pressure;Samples;Min_cycle;Max_cycle;Signal;HPM_P1;HPM_P2
2021/09/17 00:01:27;;;;;;;11.35;7.32;;;;;;;19.03;66.85;101289.78;5035944;28;20045;-69
2021/09/17 00:03:55;;;;;;;15.15;7.53;;;;;;;19.04;67.09;101286.66;5016355;28;20049;-66
2021/09/17 00:06:22;;;;;;;15.20;7.50;;;;;;;19.11;66.65;101288.81;5033604;28;20061;-68
2021/09/17 00:08:50;;;;;;;13.55;7.80;;;;;;;19.11;66.30;101291.59;5032811;28;20049;-65
2021/09/17 00:11:17;;;;;;;14.85;7.97;;;;;;;19.03;66.75;101287.00;5032733;28;20056;-68
2021/09/17 00:13:44;;;;;;;10.95;7.55;;;;;;;18.94;67.17;101283.56;5058102;28;20064;-70
2021/09/17 00:16:12;;;;;;;12.75;7.68;;;;;;;19.02;66.74;101279.81;5074179;28;20057;-68
2021/09/17 00:18:39;;;;;;;13.25;7.35;;;;;;;18.91;67.36;101271.13;5072075;28;20174;-65
2021/09/17 00:21:06;;;;;;;15.98;8.13;;;;;;;18.87;67.53;101274.97;5058704;28;20072;-69
2021/09/17 00:23:34;;;;;;;11.75;7.72;;;;;;;18.98;67.42;101267.72;5054089;28;20061;-66
2021/09/17 00:26:01;;;;;;;12.70;7.95;;;;;;;18.91;67.57;101267.53;5052174;28;20048;-66
2021/09/17 00:28:28;;;;;;;17.67;8.32;;;;;;;18.91;67.49;101261.94;5049648;28;20477;-67
2021/09/17 00:30:56;;;;;;;11.38;6.95;;;;;;;18.97;67.32;101266.06;5036115;28;20049;-69
2021/09/17 00:33:23;;;;;;;12.35;7.25;;;;;;;19.08;67.15;101258.81;5036014;28;20050;-66
2021/09/17 00:35:50;;;;;;;12.25;7.47;;;;;;;19.01;67.15;101278.16;5003757;28;20045;-68
2021/09/17 00:38:18;;;;;;;13.60;7.28;;;;;;;18.94;67.49;101270.41;5037124;28;20052;-65
2021/09/17 00:40:45;;;;;;;9.85;6.63;;;;;;;19.02;67.43;101257.47;5035966;28;20493;-65
2021/09/17 00:43:12;;;;;;;10.35;7.00;;;;;;;19.02;67.20;101268.63;5035692;28;20049;-66
2021/09/17 00:45:41;;;;;;;11.80;7.63;;;;;;;18.96;67.37;101261.69;5045002;28;20053;-66
2021/09/17 00:48:08;;;;;;;11.13;7.35;;;;;;;18.67;68.81;101253.66;5056441;28;20061;-68
2021/09/17 00:50:35;;;;;;;10.90;7.75;;;;;;;18.76;68.01;101257.09;5057066;28;20069;-65
2021/09/17 00:53:03;;;;;;;13.73;7.53;;;;;;;18.86;68.07;101254.59;5056607;28;20057;-66
2021/09/17 00:55:30;;;;;;;14.98;7.28;;;;;;;18.83;67.70;101252.53;5041562;28;20064;-65
2021/09/17 00:57:58;;;;;;;13.45;7.72;;;;;;;18.81;68.35;101254.09;5035451;28;20045;-66
2021/09/17 01:00:25;;;;;;;13.23;7.85;;;;;;;18.72;68.44;101248.66;5035673;28;20410;-68
2021/09/17 01:02:52;;;;;;;11.20;7.72;;;;;;;18.66;68.69;101249.25;5036347;28;20045;-67
2021/09/17 01:05:20;;;;;;;13.48;7.80;;;;;;;18.64;68.43;101248.78;5048431;28;20057;-65
2021/09/17 01:07:48;;;;;;;13.20;8.20;;;;;;;18.67;68.63;101248.09;5038178;28;20053;-65
2021/09/17 01:10:15;;;;;;;13.13;7.57;;;;;;;18.79;68.28;101242.44;5054997;28;20053;-66
2021/09/17 01:12:43;;;;;;;13.40;8.13;;;;;;;18.62;68.52;101251.13;5058949;28;20404;-66
2021/09/17 01:15:11;;;;;;;13.02;8.43;;;;;;;18.56;68.76;101239.41;5054867;28;20050;-67
2021/09/17 01:17:42;;;;;;;13.20;8.45;;;;;;;18.53;68.79;101239.31;5036653;28;20057;-68
2021/09/17 01:20:16;;;;;;;13.02;8.52;;;;;;;18.41;68.90;101228.19;5036423;28;20545;-65
2021/09/17 01:22:47;;;;;;;11.88;7.53;;;;;;;18.45;69.83;101235.47;5036208;28;20046;-67
2021/09/17 01:25:17;;;;;;;12.70;7.35;;;;;;;18.00;71.37;101229.28;5048178;28;20056;-69
2021/09/17 01:27:45;;;;;;;12.40;7.43;;;;;;;18.11;70.97;101232.41;5054838;28;20060;-65
2021/09/17 01:30:15;;;;;;;18.42;8.38;;;;;;;17.89;71.81;101228.13;5018582;28;20045;-66
2021/09/17 01:32:42;;;;;;;11.63;7.47;;;;;;;17.82;72.35;101228.72;5036019;28;20113;-69
2021/09/17 01:35:11;;;;;;;12.77;7.40;;;;;;;17.95;71.80;101218.38;5035860;28;20417;-66
2021/09/17 01:37:39;;;;;;;12.30;7.07;;;;;;;18.13;70.96;101214.19;5036613;28;20045;-64
2021/09/17 01:40:08;;;;;;;17.23;7.13;;;;;;;18.16;71.40;101215.44;5055609;28;20049;-68
2021/09/17 01:42:35;;;;;;;12.57;7.55;;;;;;;18.34;70.31;101214.00;5056093;28;20461;-68
2021/09/17 01:45:05;;;;;;;12.65;6.82;;;;;;;18.24;70.48;101206.09;5055928;28;20048;-68
2021/09/17 01:47:33;;;;;;;10.07;6.80;;;;;;;18.15;70.79;101208.25;5055897;28;20060;-65
2021/09/17 01:50:00;;;;;;;11.70;6.70;;;;;;;18.24;70.54;101203.31;5052561;28;20491;-66
2021/09/17 01:52:28;;;;;;;14.30;6.68;;;;;;;18.31;70.15;101200.75;5055337;28;20512;-68
2021/09/17 01:54:55;;;;;;;14.48;6.60;;;;;;;18.11;71.22;101199.78;5054130;28;20047;-69
2021/09/17 01:57:23;;;;;;;12.50;6.75;;;;;;;18.38;70.44;101200.94;5055464;28;20049;-68
2021/09/17 01:59:50;;;;;;;13.00;6.60;;;;;;;18.16;71.09;101198.69;5050298;28;20069;-65
2021/09/17 02:02:17;;;;;;;9.40;6.25;;;;;;;18.22;71.03;101197.31;5034451;28;20394;-65
2021/09/17 02:04:44;;;;;;;14.27;6.88;;;;;;;18.28;70.85;101196.69;5033994;28;20057;-67
2021/09/17 02:07:12;;;;;;;10.52;7.22;;;;;;;18.13;71.13;101189.09;5034062;28;20050;-68
2021/09/17 02:09:39;;;;;;;11.73;6.20;;;;;;;18.19;70.86;101184.88;5036701;28;20464;-65
2021/09/17 02:12:07;;;;;;;10.02;6.40;;;;;;;18.23;70.39;101185.78;5035177;28;20045;-68
2021/09/17 02:14:35;;;;;;;11.73;6.55;;;;;;;18.14;70.89;101187.91;5035374;28;20046;-65
2021/09/17 02:17:02;;;;;;;9.38;6.25;;;;;;;18.07;71.23;101189.66;5035614;28;20053;-65
2021/09/17 02:19:29;;;;;;;9.38;6.07;;;;;;;18.17;70.91;101186.38;5036511;28;20053;-69
2021/09/17 02:21:57;;;;;;;10.15;5.88;;;;;;;18.15;71.17;101186.72;5035651;28;20060;-65
2021/09/17 02:24:24;;;;;;;14.70;7.20;;;;;;;18.30;70.23;101180.44;5034996;28;20064;-69
2021/09/17 02:26:51;;;;;;;9.15;6.18;;;;;;;18.11;70.68;101185.84;5035320;28;20064;-69
2021/09/17 02:29:19;;;;;;;11.98;6.35;;;;;;;18.03;71.18;101180.41;5035109;28;20080;-69
2021/09/17 02:31:46;;;;;;;11.02;6.10;;;;;;;18.14;71.22;101178.72;5035125;28;20049;-69
2021/09/17 02:34:13;;;;;;;9.32;6.18;;;;;;;18.09;71.22;101177.00;5033370;28;20060;-69
2021/09/17 02:36:41;;;;;;;9.07;6.10;;;;;;;18.20;71.02;101178.09;5035102;28;20577;-69
2021/09/17 02:39:11;;;;;;;11.38;6.43;;;;;;;18.01;71.26;101183.50;5034994;28;20049;-68
2021/09/17 02:41:39;;;;;;;13.48;6.38;;;;;;;17.97;71.28;101185.41;5053009;28;20049;-66
2021/09/17 02:44:06;;;;;;;12.00;6.75;;;;;;;17.95;71.60;101180.19;5054808;28;20045;-65
2021/09/17 02:46:34;;;;;;;9.70;6.63;;;;;;;17.61;73.01;101180.66;5053517;28;20059;-69
2021/09/17 02:49:02;;;;;;;10.18;6.63;;;;;;;17.58;73.13;101181.38;5054903;28;20469;-70
2021/09/17 02:51:29;;;;;;;12.07;6.93;;;;;;;17.76;72.64;101171.63;5037613;28;20045;-68
2021/09/17 02:53:58;;;;;;;9.00;6.63;;;;;;;17.70;72.31;101164.66;5033933;28;20052;-68
2021/09/17 02:56:25;;;;;;;12.02;6.82;;;;;;;17.52;73.23;101163.25;5034916;28;20057;-68
2021/09/17 02:58:53;;;;;;;10.55;6.57;;;;;;;17.63;72.78;101164.41;5034798;28;20417;-69
2021/09/17 03:01:20;;;;;;;9.48;6.82;;;;;;;17.40;73.87;101159.66;5049339;28;20048;-68
2021/09/17 03:03:48;;;;;;;9.80;6.03;;;;;;;17.68;73.11;101158.59;5054189;28;20080;-65
2021/09/17 03:06:15;;;;;;;12.52;6.68;;;;;;;17.58;73.23;101158.28;5053983;28;20063;-66
2021/09/17 03:08:42;;;;;;;10.20;6.78;;;;;;;17.36;73.81;101159.53;5054411;28;20053;-65
2021/09/17 03:11:10;;;;;;;12.30;6.65;;;;;;;17.30;74.35;101157.31;5053038;28;20053;-68
2021/09/17 03:13:37;;;;;;;10.90;6.82;;;;;;;17.46;73.75;101161.03;5059517;28;20044;-68
2021/09/17 03:16:05;;;;;;;10.85;6.38;;;;;;;17.44;73.68;101160.56;5074644;28;20052;-69
2021/09/17 03:18:34;;;;;;;8.68;6.15;;;;;;;17.61;73.16;101138.88;5071781;28;20048;-70
2021/09/17 03:21:01;;;;;;;12.43;6.65;;;;;;;17.58;73.34;101142.38;5056455;28;20091;-66
2021/09/17 03:23:29;;;;;;;11.82;6.55;;;;;;;17.62;72.98;101140.53;5057613;28;20052;-66
2021/09/17 03:25:57;;;;;;;10.00;6.53;;;;;;;17.64;73.07;101137.38;5054785;28;20053;-66
2021/09/17 03:28:24;;;;;;;12.18;6.78;;;;;;;17.89;72.03;101139.75;5036666;28;20045;-66
2021/09/17 03:30:52;;;;;;;11.15;6.30;;;;;;;17.78;72.02;101133.03;5053029;28;20103;-66
2021/09/17 03:33:19;;;;;;;12.93;6.40;;;;;;;17.64;72.35;101135.38;5031777;28;20160;-65
2021/09/17 03:35:46;;;;;;;11.10;6.50;;;;;;;17.56;72.97;101132.72;5039107;28;20060;-65
2021/09/17 03:38:14;;;;;;;9.45;7.25;;;;;;;17.53;73.21;101141.78;5044933;28;20053;-64
2021/09/17 03:40:41;;;;;;;10.13;6.68;;;;;;;17.44;73.31;101136.31;5049100;28;20159;-66
2021/09/17 03:43:09;;;;;;;12.32;6.65;;;;;;;17.61;72.64;101136.09;5041891;28;20060;-65
2021/09/17 03:45:36;;;;;;;11.73;7.30;;;;;;;17.56;72.71;101141.91;5032527;28;20064;-65
2021/09/17 03:48:09;;;;;;;12.77;7.00;;;;;;;17.80;71.86;101139.09;5034251;28;20056;-68
2021/09/17 03:50:37;;;;;;;10.90;6.88;;;;;;;17.57;72.71;101140.75;5033927;28;20045;-69
2021/09/17 03:53:04;;;;;;;11.35;6.78;;;;;;;17.62;72.48;101134.94;5043080;28;20045;-70
2021/09/17 03:55:34;;;;;;;9.65;6.85;;;;;;;17.59;72.50;101134.84;5050135;28;20061;-68
2021/09/17 03:58:04;;;;;;;9.70;6.80;;;;;;;17.44;73.16;101127.16;5032584;28;20046;-69
2021/09/17 04:00:43;;;;;;;15.10;7.28;;;;;;;17.19;73.76;101131.13;5032383;28;20065;-69
2021/09/17 04:03:16;;;;;;;11.75;6.82;;;;;;;17.18;74.04;101129.47;5016666;28;20080;-66
2021/09/17 04:05:44;;;;;;;14.68;7.25;;;;;;;17.14;74.66;101137.72;5034599;28;20049;-65
2021/09/17 04:08:12;;;;;;;10.95;6.80;;;;;;;17.26;73.96;101134.94;5037601;28;20117;-65
2021/09/17 04:10:39;;;;;;;11.13;6.65;;;;;;;17.41;73.88;101128.69;5036359;28;20045;-65
2021/09/17 04:13:06;;;;;;;12.25;6.97;;;;;;;17.48;73.68;101140.06;5043768;28;20060;-66
2021/09/17 04:15:33;;;;;;;14.88;6.65;;;;;;;17.41;73.04;101134.25;5057174;28;20376;-69
2021/09/17 04:18:01;;;;;;;9.48;6.95;;;;;;;17.31;73.61;101133.91;5057213;28;20049;-68
2021/09/17 04:20:28;;;;;;;10.55;6.85;;;;;;;17.28;73.98;101129.81;5056625;28;20049;-69
2021/09/17 04:22:55;;;;;;;12.43;6.90;;;;;;;17.26;74.02;101134.94;5048593;28;20052;-69
2021/09/17 04:25:23;;;;;;;13.80;6.97;;;;;;;17.51;73.36;101130.19;5037386;28;20057;-69
2021/09/17 04:27:50;;;;;;;11.80;7.43;;;;;;;17.47;73.11;101137.63;5037315;28;20053;-69
2021/09/17 04:30:20;;;;;;;12.13;6.95;;;;;;;17.26;73.90;101140.50;5021555;28;20064;-70
2021/09/17 04:32:48;;;;;;;14.38;7.53;;;;;;;17.22;74.05;101136.81;5045781;28;20049;-68
2021/09/17 04:35:16;;;;;;;10.57;7.25;;;;;;;17.36;73.68;101126.13;5051269;28;20044;-65
2021/09/17 04:37:46;;;;;;;12.75;7.70;;;;;;;17.49;73.23;101140.88;5056862;28;20052;-66
2021/09/17 04:40:16;;;;;;;16.85;6.93;;;;;;;17.35;73.51;101135.63;5055801;28;20053;-66
2021/09/17 04:42:43;;;;;;;15.10;7.78;;;;;;;17.65;72.57;101134.25;5055182;28;20402;-65
2021/09/17 04:45:11;;;;;;;12.57;7.78;;;;;;;16.98;74.81;101131.19;5044189;28;20045;-65
2021/09/17 04:47:38;;;;;;;10.50;7.47;;;;;;;16.77;76.16;101136.06;5037252;28;20049;-66
2021/09/17 04:50:07;;;;;;;15.25;10.32;;;;;;;17.00;74.95;101134.44;5036809;28;20084;-64
2021/09/17 04:52:47;;;;;;;21.45;12.82;;;;;;;17.34;74.23;101131.22;5037107;28;20481;-65
2021/09/17 04:55:16;;;;;;;20.85;12.38;;;;;;;17.19;74.33;101129.13;5048874;28;20049;-65
2021/09/17 04:57:44;;;;;;;24.42;12.45;;;;;;;17.33;73.95;101126.00;5055722;28;20413;-66
2021/09/17 05:00:11;;;;;;;31.48;15.27;;;;;;;17.43;73.67;101131.09;5056418;28;20519;-65
2021/09/17 05:02:42;;;;;;;24.05;13.25;;;;;;;17.48;73.46;101128.94;5043166;28;20058;-65
2021/09/17 05:05:10;;;;;;;15.93;8.45;;;;;;;16.97;74.83;101125.97;5035990;28;20053;-65
2021/09/17 05:07:41;;;;;;;11.88;7.55;;;;;;;16.60;76.64;101130.66;5035324;28;20053;-66
2021/09/17 05:10:09;;;;;;;13.95;8.05;;;;;;;16.84;76.36;101127.94;5036425;28;20041;-66
2021/09/17 05:12:37;;;;;;;14.10;8.25;;;;;;;17.14;75.21;101134.13;5051626;28;20070;-65
2021/09/17 05:15:06;;;;;;;16.63;8.60;;;;;;;17.32;74.33;101127.16;5060871;28;20052;-65
2021/09/17 05:17:33;;;;;;;16.02;8.10;;;;;;;17.07;74.71;101134.69;5046455;28;20049;-65
2021/09/17 05:20:01;;;;;;;13.68;7.60;;;;;;;16.77;76.47;101133.28;5055232;28;20053;-64
2021/09/17 05:22:29;;;;;;;12.75;7.65;;;;;;;16.71;76.75;101134.63;5046241;28;20065;-65
2021/09/17 05:24:57;;;;;;;13.40;8.55;;;;;;;16.89;76.33;101122.16;5036216;28;20049;-66
2021/09/17 05:27:27;;;;;;;15.07;8.45;;;;;;;16.51;77.90;101132.75;5034837;28;20505;-66
2021/09/17 05:29:55;;;;;;;18.98;8.48;;;;;;;16.50;78.24;101126.34;5035830;28;20061;-69
2021/09/17 05:32:23;;;;;;;13.68;8.30;;;;;;;16.77;77.24;101120.16;5019168;28;20048;-65
2021/09/17 05:34:50;;;;;;;17.92;9.45;;;;;;;16.42;78.65;101118.88;5035778;28;20071;-69
2021/09/17 05:37:17;;;;;;;12.00;8.55;;;;;;;16.68;77.87;101127.00;5057387;28;20049;-65
2021/09/17 05:39:44;;;;;;;16.30;8.82;;;;;;;16.92;77.30;101117.84;5055120;28;20496;-65
2021/09/17 05:42:12;;;;;;;13.35;9.05;;;;;;;16.89;76.88;101119.38;5054601;28;20049;-69
2021/09/17 05:44:39;;;;;;;16.58;9.00;;;;;;;17.20;76.09;101129.94;5053902;28;20048;-69
2021/09/17 05:47:06;;;;;;;14.60;8.60;;;;;;;17.24;75.59;101128.91;5044204;28;20516;-68
2021/09/17 05:49:34;;;;;;;14.88;8.48;;;;;;;17.31;75.34;101123.56;5055665;28;20053;-69
2021/09/17 05:52:01;;;;;;;14.07;8.32;;;;;;;17.51;74.74;101122.66;5055824;28;20044;-69
2021/09/17 05:54:32;;;;;;;13.82;7.88;;;;;;;17.30;75.10;101124.72;5054107;28;20049;-68
2021/09/17 05:57:00;;;;;;;13.25;9.00;;;;;;;17.61;74.60;101122.16;5055939;28;20056;-69
2021/09/17 05:59:27;;;;;;;14.38;8.68;;;;;;;17.34;74.96;101128.44;5055369;28;20514;-68
2021/09/17 06:01:54;;;;;;;23.98;14.30;;;;;;;17.06;75.51;101126.69;5055617;28;20056;-69
2021/09/17 06:04:22;;;;;;;16.92;9.15;;;;;;;16.80;77.03;101127.00;5032632;28;20049;-69
2021/09/17 06:06:49;;;;;;;16.80;9.27;;;;;;;17.03;76.21;101119.84;5034298;28;20053;-70
2021/09/17 06:09:16;;;;;;;21.77;9.75;;;;;;;17.23;75.83;101124.50;5035145;28;20630;-69
2021/09/17 06:11:43;;;;;;;17.20;10.93;;;;;;;17.53;74.66;101122.31;5035718;28;20545;-69
2021/09/17 06:14:11;;;;;;;14.52;9.38;;;;;;;17.37;74.88;101116.59;5067366;28;20060;-68
2021/09/17 06:16:38;;;;;;;17.60;9.30;;;;;;;17.45;74.99;101115.66;5053689;28;20049;-69
2021/09/17 06:19:05;;;;;;;16.50;9.05;;;;;;;17.58;74.46;101120.09;5041979;28;20057;-68
2021/09/17 06:21:34;;;;;;;18.90;13.30;;;;;;;17.52;74.36;101120.69;5047309;28;20053;-70
2021/09/17 06:24:02;;;;;;;19.75;11.40;;;;;;;17.77;73.60;101114.72;5057683;28;20048;-69
2021/09/17 06:26:32;;;;;;;14.63;10.18;;;;;;;17.57;74.04;101118.44;5045596;28;20531;-69
2021/09/17 06:29:02;;;;;;;18.20;9.88;;;;;;;17.75;73.71;101117.03;5044506;28;20049;-69
2021/09/17 06:31:30;;;;;;;18.63;9.55;;;;;;;17.37;74.62;101111.03;5035759;28;20527;-69
2021/09/17 06:33:57;;;;;;;17.67;10.00;;;;;;;17.54;74.84;101110.81;5040073;28;20053;-70
2021/09/17 06:36:25;;;;;;;20.35;10.60;;;;;;;17.72;73.99;101103.81;5042864;28;20045;-69
2021/09/17 06:38:52;;;;;;;29.65;19.15;;;;;;;17.87;73.48;101103.06;5036017;28;20053;-69
2021/09/17 06:41:19;;;;;;;17.30;10.75;;;;;;;17.91;74.04;101105.97;5053537;28;20052;-69
2021/09/17 06:43:47;;;;;;;16.38;10.07;;;;;;;17.86;74.27;101103.44;5046039;28;20056;-68
2021/09/17 06:46:14;;;;;;;17.52;10.18;;;;;;;18.03;74.83;101110.69;5043247;28;20492;-69
2021/09/17 06:48:42;;;;;;;20.23;10.43;;;;;;;17.95;73.91;101102.13;5051562;28;20051;-70
2021/09/17 06:51:09;;;;;;;22.27;11.80;;;;;;;18.16;73.76;101101.13;5047473;28;20041;-69
2021/09/17 06:53:37;;;;;;;22.90;11.10;;;;;;;18.14;73.10;101103.44;5034003;28;20053;-70
2021/09/17 06:56:04;;;;;;;18.98;10.10;;;;;;;17.92;72.80;101105.59;5043123;28;20068;-69
2021/09/17 06:58:32;;;;;;;23.00;10.60;;;;;;;18.05;72.75;101105.56;5038900;28;20092;-68
2021/09/17 07:01:00;;;;;;;24.52;11.32;;;;;;;18.01;72.97;101097.09;5039453;28;20068;-64
2021/09/17 07:03:27;;;;;;;16.23;10.95;;;;;;;18.01;72.98;101107.44;5036113;28;20057;-65
2021/09/17 07:05:55;;;;;;;18.67;10.95;;;;;;;18.29;71.66;101092.34;5039464;28;20048;-63
2021/09/17 07:08:23;;;;;;;21.52;11.57;;;;;;;17.93;71.96;101096.09;5040467;28;20071;-68
2021/09/17 07:10:50;;;;;;;21.15;11.32;;;;;;;17.98;72.60;101101.41;5036130;28;20358;-69
2021/09/17 07:13:19;;;;;;;22.95;11.05;;;;;;;17.81;73.30;101103.69;5039841;28;20064;-68
2021/09/17 07:15:46;;;;;;;17.23;10.82;;;;;;;18.14;72.23;101095.06;5041437;28;20048;-68
2021/09/17 07:18:13;;;;;;;16.98;10.30;;;;;;;18.23;71.64;101090.16;5057655;28;20060;-62
2021/09/17 07:20:41;;;;;;;27.60;10.98;;;;;;;18.17;71.16;101095.19;5052119;28;20076;-62
2021/09/17 07:23:10;;;;;;;31.95;17.48;;;;;;;18.39;70.84;101089.06;5045685;28;20052;-68
2021/09/17 07:25:38;;;;;;;21.40;14.55;;;;;;;18.63;70.37;101090.91;5032279;28;20046;-69
2021/09/17 07:28:09;;;;;;;16.50;10.10;;;;;;;18.88;69.31;101092.38;5034437;28;20069;-63
2021/09/17 07:30:37;;;;;;;18.45;10.77;;;;;;;18.56;69.50;101096.28;5034258;28;20045;-64
2021/09/17 07:33:04;;;;;;;21.08;10.70;;;;;;;18.56;69.62;101093.50;5034280;28;20648;-66
2021/09/17 07:35:32;;;;;;;19.42;10.88;;;;;;;18.58;69.54;101092.00;5032941;28;20045;-72
2021/09/17 07:37:59;;;;;;;18.45;9.95;;;;;;;18.72;69.24;101094.34;5027503;28;20060;-69
2021/09/17 07:40:28;;;;;;;18.98;10.30;;;;;;;18.83;68.59;101093.44;5052121;28;20052;-63
2021/09/17 07:42:56;;;;;;;20.42;9.77;;;;;;;18.92;67.85;101088.50;5052603;28;20076;-69
2021/09/17 07:45:24;;;;;;;24.92;14.65;;;;;;;18.97;67.60;101096.59;5043978;28;20061;-65
2021/09/17 07:47:54;;;;;;;20.25;12.80;;;;;;;19.06;67.44;101100.00;5025599;28;20053;-70
2021/09/17 07:50:22;;;;;;;24.33;14.95;;;;;;;19.18;67.04;101096.31;5054166;28;20045;-64
2021/09/17 07:52:49;;;;;;;19.02;9.57;;;;;;;19.22;66.65;101100.00;5043358;28;20056;-64
2021/09/17 07:55:17;;;;;;;15.55;8.57;;;;;;;19.22;66.76;101101.97;5043904;28;20055;-70
2021/09/17 07:57:45;;;;;;;15.98;8.52;;;;;;;19.32;65.96;101107.06;5047059;28;20051;-70
2021/09/17 08:00:13;;;;;;;16.48;8.73;;;;;;;19.29;65.53;101108.56;5045999;28;20076;-70
2021/09/17 08:02:42;;;;;;;21.55;12.65;;;;;;;19.49;65.26;101107.44;5047873;28;20068;-66
2021/09/17 08:05:13;;;;;;;24.48;11.75;;;;;;;19.39;64.87;101099.63;5053472;28;20067;-62
2021/09/17 08:07:41;;;;;;;14.95;8.85;;;;;;;19.56;64.75;101096.44;5045486;28;20056;-70
2021/09/17 08:10:09;;;;;;;14.90;8.07;;;;;;;19.62;63.89;101095.00;5041149;28;20056;-63
2021/09/17 08:12:36;;;;;;;12.07;7.07;;;;;;;19.61;63.66;101101.78;5049911;28;20044;-64
2021/09/17 08:15:05;;;;;;;15.90;10.00;;;;;;;19.58;64.10;101094.09;5057965;28;20041;-71
2021/09/17 08:17:32;;;;;;;15.20;9.23;;;;;;;19.70;63.73;101096.75;5037384;28;20057;-64
2021/09/17 08:20:05;;;;;;;11.98;8.10;;;;;;;19.73;62.94;101098.84;5053341;28;20076;-65
2021/09/17 08:22:33;;;;;;;14.13;6.78;;;;;;;19.60;63.28;101093.72;5037443;28;20528;-63
2021/09/17 08:25:01;;;;;;;14.93;8.23;;;;;;;19.66;62.83;101103.47;5037765;28;20068;-69
2021/09/17 08:27:28;;;;;;;13.48;6.85;;;;;;;19.88;62.39;101099.94;5036203;28;20051;-70
2021/09/17 08:29:55;;;;;;;11.60;6.55;;;;;;;19.76;61.88;101098.09;5047701;28;20053;-65
2021/09/17 08:32:23;;;;;;;16.60;6.45;;;;;;;19.88;61.99;101106.38;5047454;28;20045;-64
2021/09/17 08:34:51;;;;;;;13.73;6.38;;;;;;;20.01;61.59;101102.22;5037679;28;20049;-71
2021/09/17 08:37:19;;;;;;;9.68;6.45;;;;;;;20.13;61.06;101099.31;5037989;28;20045;-69
2021/09/17 08:39:46;;;;;;;14.52;9.25;;;;;;;20.21;60.97;101091.09;5038163;28;20056;-69
2021/09/17 08:42:15;;;;;;;12.10;6.82;;;;;;;20.31;60.93;101090.50;5046631;28;20051;-62
2021/09/17 08:44:44;;;;;;;;;;;;;;;20.23;60.64;101094.31;5046763;28;20037;-68
2021/09/17 08:47:18;;;;;;;9.05;5.88;;;;;;;20.34;59.96;101093.38;5049271;28;19925;-64
2021/09/17 08:49:46;;;;;;;11.10;5.47;;;;;;;20.36;60.30;101090.19;5036306;28;20046;-64
2021/09/17 08:52:13;;;;;;;11.63;5.55;;;;;;;20.30;60.35;101092.47;5043714;28;20504;-65
2021/09/17 08:54:41;;;;;;;11.20;5.53;;;;;;;20.31;59.95;101093.28;5039432;28;20053;-66
2021/09/17 08:57:10;;;;;;;15.98;6.43;;;;;;;20.25;60.36;101091.97;5045977;28;20064;-71
2021/09/17 08:59:38;;;;;;;14.45;6.35;;;;;;;20.00;61.09;101089.44;5034406;28;20049;-70
2021/09/17 09:02:24;;;;;;;10.95;6.57;;;;;;;20.14;60.87;101092.53;5040411;28;20044;-71
2021/09/17 09:05:19;;;;;;;10.77;5.55;;;;;;;19.83;61.23;101089.88;5047992;28;20099;-63
2021/09/17 09:07:46;;;;;;;9.38;5.82;;;;;;;20.01;61.44;101091.03;5041268;28;20045;-64
2021/09/17 09:10:15;;;;;;;10.13;5.40;;;;;;;20.23;61.04;101097.09;5019915;28;20049;-64
2021/09/17 09:13:03;;;;;;;13.07;6.43;;;;;;;20.39;60.56;101093.06;5055138;28;20056;-70
2021/09/17 09:15:33;;;;;;;10.85;5.68;;;;;;;20.08;61.05;101085.59;5029579;28;20500;-65
2021/09/17 09:18:12;;;;;;;15.40;5.60;;;;;;;20.07;61.07;101083.19;5064309;28;20049;-70
2021/09/17 09:20:40;;;;;;;12.68;5.47;;;;;;;20.17;61.19;101085.44;5039012;28;20073;-64
2021/09/17 09:23:28;;;;;;;10.10;5.60;;;;;;;20.39;60.17;101081.88;5044058;28;20057;-64
2021/09/17 09:26:05;;;;;;;10.52;5.32;;;;;;;20.28;59.66;101082.81;5035851;28;20041;-64
2021/09/17 09:28:39;;;;;;;10.40;4.97;;;;;;;20.43;59.86;101071.56;5044452;28;20060;-64
2021/09/17 09:31:16;;;;;;;10.20;5.13;;;;;;;20.51;59.43;101073.31;5040947;28;20056;-69
2021/09/17 09:33:52;;;;;;;11.35;5.13;;;;;;;20.59;59.15;101069.44;5044603;28;20053;-70
2021/09/17 09:36:21;;;;;;;10.93;4.88;;;;;;;20.86;58.69;101070.31;5046170;28;20037;-63
2021/09/17 09:38:50;;;;;;;9.18;4.93;;;;;;;20.93;58.74;101068.47;5044756;28;20049;-69
2021/09/17 09:41:17;;;;;;;9.60;4.80;;;;;;;20.78;58.46;101074.97;5045652;28;20056;-70
2021/09/17 09:44:00;;;;;;;8.80;5.00;;;;;;;20.80;58.05;101080.22;5036024;28;20539;-70
2021/09/17 09:46:38;;;;;;;9.52;4.82;;;;;;;20.90;57.44;101065.59;5035032;28;20398;-70
2021/09/17 09:49:26;;;;;;;10.88;4.07;;;;;;;20.75;57.59;101066.53;5054238;28;20488;-65
2021/09/17 09:51:59;;;;;;;9.60;4.43;;;;;;;20.82;57.11;101075.03;5044707;28;20580;-64
2021/09/17 09:54:31;;;;;;;9.35;3.55;;;;;;;21.10;55.66;101070.78;5035175;28;20065;-66
2021/09/17 09:57:02;;;;;;;8.10;5.07;;;;;;;21.12;55.77;101065.59;5034208;28;20061;-70
2021/09/17 09:59:31;;;;;;;9.07;5.97;;;;;;;21.00;55.55;101060.22;5038164;28;20049;-66
2021/09/17 10:02:01;;;;;;;8.48;3.75;;;;;;;21.18;55.03;101061.28;5043727;28;20056;-65
2021/09/17 10:04:30;;;;;;;10.05;3.92;;;;;;;21.22;55.04;101067.75;5044542;28;20053;-70
2021/09/17 10:07:09;;;;;;;6.70;3.55;;;;;;;21.27;54.90;101063.81;5060412;28;20048;-65
2021/09/17 10:09:38;;;;;;;10.00;4.18;;;;;;;20.85;54.98;101052.69;5037106;28;20057;-71
2021/09/17 10:12:08;;;;;;;8.48;3.95;;;;;;;21.08;55.47;101053.53;5050941;28;20056;-64
2021/09/17 10:14:36;;;;;;;13.48;4.25;;;;;;;20.83;55.71;101059.88;5036394;28;20057;-61
2021/09/17 10:17:11;;;;;;;7.50;4.40;;;;;;;20.72;56.24;101056.06;5035129;28;20060;-67
2021/09/17 10:19:38;;;;;;;7.78;3.70;;;;;;;20.83;56.27;101048.69;5034259;28;20538;-67
2021/09/17 10:22:06;;;;;;;8.73;5.22;;;;;;;20.70;56.98;101050.03;5040974;28;20060;-62
2021/09/17 10:24:39;;;;;;;6.40;4.45;;;;;;;20.95;56.30;101046.50;5045828;28;20064;-62
2021/09/17 10:27:11;;;;;;;8.10;3.70;;;;;;;20.71;56.03;101052.47;5035476;28;20060;-65
2021/09/17 10:29:43;;;;;;;6.05;3.50;;;;;;;20.73;55.56;101047.28;5035900;28;20053;-69
2021/09/17 10:32:46;;;;;;;7.43;2.80;;;;;;;20.76;55.34;101048.56;5053545;28;20511;-70
2021/09/17 10:35:16;;;;;;;6.43;3.28;;;;;;;20.87;55.13;101035.56;5052158;28;20053;-67
2021/09/17 10:38:06;;;;;;;7.13;3.38;;;;;;;20.92;55.20;101041.63;5054970;28;20067;-67
2021/09/17 10:40:54;;;;;;;10.70;5.75;;;;;;;21.25;54.80;101044.56;5049525;28;20049;-67
2021/09/17 10:43:29;;;;;;;10.02;4.53;;;;;;;21.07;54.09;101042.69;5035712;28;20049;-66
2021/09/17 10:46:06;;;;;;;9.57;3.53;;;;;;;21.22;52.74;101041.72;5044414;28;20060;-62
2021/09/17 10:48:47;;;;;;;9.20;4.18;;;;;;;21.16;53.14;101040.44;5042787;28;20461;-62
2021/09/17 10:51:40;;;;;;;10.23;6.32;;;;;;;21.47;53.18;101031.69;5034380;28;20421;-64
2021/09/17 10:54:11;;;;;;;10.52;4.32;;;;;;;21.42;52.67;101032.03;5054701;28;20049;-62
2021/09/17 10:56:48;;;;;;;17.33;8.07;;;;;;;21.59;52.62;101031.47;5048513;28;20049;-64
2021/09/17 10:59:27;;;;;;;17.40;4.25;;;;;;;22.30;54.62;101033.16;5039103;28;20053;-47
2021/09/17 11:02:04;;;;;;;13.67;4.07;;;;;;;22.75;53.00;101026.41;5046739;28;20076;-46
2021/09/17 11:04:37;;;;;;;14.85;4.13;;;;;;;23.11;51.53;101015.06;5036319;28;20627;-48
2021/09/17 11:07:16;;;;;;;8.35;3.50;;;;;;;23.29;50.54;101016.00;5048446;28;20056;-46
2021/09/17 11:09:45;;;;;;;7.38;4.18;;;;;;;23.34;49.31;101012.03;5034882;28;20053;-48
2021/09/17 11:12:22;;;;;;;9.20;3.30;;;;;;;23.37;49.74;101014.06;5048973;28;20056;-42
2021/09/17 11:15:15;;;;;;;6.53;3.17;;;;;;;23.50;49.49;101006.91;5033065;28;20053;-44
2021/09/17 11:17:52;;;;;;;7.32;3.60;;;;;;;23.59;49.10;101010.16;5033061;28;20508;-45
2021/09/17 11:20:26;;;;;;;9.38;3.60;;;;;;;23.59;48.70;101006.56;5016986;28;20060;-48
2021/09/17 11:22:57;;;;;;;7.05;3.15;;;;;;;23.66;52.38;100998.16;5042938;28;20049;-42
2021/09/17 11:25:30;;;;;;;6.55;3.28;;;;;;;23.70;51.48;100996.13;5060053;28;20046;-43
2021/09/17 11:27:58;;;;;;;10.13;3.42;;;;;;;23.43;49.27;101002.03;5037711;28;20053;-42